createdAt,value
2022-09-23T00:01:10.746Z,2.67
2022-09-23T00:03:41.379Z,2.33
2022-09-23T00:06:10.991Z,4.13
2022-09-23T00:08:38.184Z,2.80
2022-09-23T00:11:13.222Z,2.75
2022-09-23T00:13:42.915Z,3.30
2022-09-23T00:16:13.311Z,4.72
2022-09-23T00:18:41.685Z,5.22
2022-09-23T00:21:11.245Z,3.20
2022-09-23T00:23:40.438Z,2.55
2022-09-23T00:26:09.315Z,2.60
2022-09-23T00:28:36.751Z,2.90
2022-09-23T00:31:11.319Z,3.20
2022-09-23T00:33:38.361Z,2.92
2022-09-23T00:36:07.178Z,2.58
2022-09-23T00:38:34.196Z,2.75
2022-09-23T00:41:01.203Z,4.28
2022-09-23T00:43:42.276Z,3.13
2022-09-23T00:46:11.408Z,3.23
2022-09-23T00:48:41.054Z,3.00
2022-09-23T00:51:09.961Z,2.80
2022-09-23T00:53:37.355Z,2.60
2022-09-23T00:56:07.321Z,3.05
2022-09-23T00:58:37.226Z,3.30
2022-09-23T01:01:05.061Z,3.05
2022-09-23T01:03:32.173Z,2.90
2022-09-23T01:05:59.481Z,2.67
2022-09-23T01:08:27.849Z,2.65
2022-09-23T01:10:57.254Z,3.50
2022-09-23T01:13:28.969Z,3.65
2022-09-23T01:18:43.401Z,3.15
2022-09-23T01:21:13.011Z,3.20
2022-09-23T01:24:02.398Z,4.45
2022-09-23T01:26:47.275Z,3.85
2022-09-23T01:29:35.475Z,2.95
2022-09-23T01:36:15.405Z,2.50
2022-09-23T01:38:58.419Z,3.08
2022-09-23T01:41:43.660Z,2.95
2022-09-23T01:44:29.904Z,2.65
2022-09-23T01:47:10.961Z,3.53
2022-09-23T01:49:59.026Z,2.72
2022-09-23T01:52:41.655Z,3.15
2022-09-23T01:55:17.700Z,2.15
2022-09-23T01:57:50.046Z,4.85
2022-09-23T02:00:18.418Z,4.57
2022-09-23T02:03:22.112Z,4.55
2022-09-23T02:06:01.364Z,4.57
2022-09-23T02:08:31.162Z,4.30
2022-09-23T02:11:04.655Z,5.45
2022-09-23T02:14:01.555Z,5.72
2022-09-23T02:16:31.954Z,5.00
2022-09-23T02:19:15.280Z,5.22
2022-09-23T02:21:47.370Z,5.95
2022-09-23T02:24:20.306Z,5.10
2022-09-23T02:27:08.530Z,4.22
2022-09-23T02:30:03.505Z,5.00
2022-09-23T02:32:48.669Z,5.43
2022-09-23T02:35:24.439Z,5.47
2022-09-23T02:37:53.305Z,4.68
2022-09-23T02:40:33.397Z,8.48
2022-09-23T02:43:09.546Z,3.75
2022-09-23T02:45:37.901Z,4.90
2022-09-23T02:48:13.763Z,6.30
2022-09-23T02:50:41.058Z,5.65
2022-09-23T02:53:08.585Z,4.72
2022-09-23T02:55:35.384Z,3.83
2022-09-23T02:58:04.167Z,3.75
2022-09-23T03:01:07.259Z,3.33
2022-09-23T03:03:46.868Z,3.47
2022-09-23T03:06:42.664Z,3.78
2022-09-23T03:09:20.092Z,3.03
2022-09-23T03:11:50.603Z,2.28
2022-09-23T03:14:36.261Z,3.47
2022-09-23T03:17:09.712Z,4.10
2022-09-23T03:19:42.707Z,4.22
2022-09-23T03:22:21.282Z,3.63
2022-09-23T03:24:53.883Z,3.45
2022-09-23T03:27:26.703Z,3.92
2022-09-23T03:29:55.657Z,3.40
2022-09-23T03:32:27.471Z,4.28
2022-09-23T03:34:57.980Z,3.75
2022-09-23T03:37:31.454Z,5.25
2022-09-23T03:40:09.109Z,2.65
2022-09-23T03:42:38.692Z,3.25
2022-09-23T03:45:13.010Z,4.43
2022-09-23T03:47:39.844Z,3.72
2022-09-23T03:50:06.961Z,3.42
2022-09-23T03:52:33.670Z,3.47
2022-09-23T03:55:01.722Z,3.33
2022-09-23T03:57:31.887Z,3.97
2022-09-23T03:59:58.686Z,5.20
2022-09-23T04:02:26.215Z,5.07
2022-09-23T04:04:53.171Z,5.75
2022-09-23T04:07:20.056Z,4.15
2022-09-23T04:09:46.873Z,6.20
2022-09-23T04:12:16.121Z,6.65
2022-09-23T04:14:43.599Z,7.40
2022-09-23T04:17:10.930Z,7.18
2022-09-23T04:19:38.052Z,5.53
2022-09-23T04:22:05.474Z,7.40
2022-09-23T04:24:32.523Z,6.38
2022-09-23T04:26:59.394Z,6.00
2022-09-23T04:29:26.869Z,6.18
2022-09-23T04:31:53.873Z,6.13
2022-09-23T04:34:21.579Z,6.30
2022-09-23T04:36:49.333Z,9.20
2022-09-23T04:39:17.520Z,5.50
2022-09-23T04:41:45.370Z,5.97
2022-09-23T04:44:13.471Z,5.28
2022-09-23T04:46:41.095Z,6.93
2022-09-23T04:49:08.532Z,6.97
2022-09-23T04:51:36.168Z,4.30
2022-09-23T04:54:02.909Z,4.53
2022-09-23T04:56:33.773Z,6.28
2022-09-23T04:59:01.746Z,4.25
2022-09-23T05:01:31.554Z,4.57
2022-09-23T05:04:02.411Z,4.13
2022-09-23T05:06:31.427Z,6.30
2022-09-23T05:08:59.224Z,3.25
2022-09-23T05:11:27.145Z,4.00
2022-09-23T05:13:54.726Z,3.25
2022-09-23T05:16:23.259Z,3.50
2022-09-23T05:18:51.560Z,4.18
2022-09-23T05:21:21.101Z,3.75
2022-09-23T05:23:56.444Z,4.20
2022-09-23T05:26:27.754Z,2.80
2022-09-23T05:28:55.007Z,3.95
2022-09-23T05:31:24.077Z,2.97
2022-09-23T05:33:53.547Z,3.50
2022-09-23T05:36:22.144Z,3.13
2022-09-23T05:38:50.825Z,4.63
2022-09-23T05:41:19.577Z,4.13
2022-09-23T05:43:47.296Z,3.95
2022-09-23T05:46:23.312Z,3.85
2022-09-23T05:48:50.672Z,3.55
2022-09-23T05:51:26.487Z,4.05
2022-09-23T05:53:58.233Z,3.28
2022-09-23T05:56:26.564Z,3.63
2022-09-23T05:58:54.981Z,3.25
2022-09-23T06:01:25.249Z,3.63
2022-09-23T06:03:56.665Z,3.13
2022-09-23T06:08:53.030Z,4.22
2022-09-23T06:11:21.467Z,2.63
2022-09-23T06:13:48.554Z,4.03
2022-09-23T06:16:16.510Z,2.95
2022-09-23T06:18:45.285Z,3.47
2022-09-23T06:21:14.743Z,2.90
2022-09-23T06:23:42.288Z,6.75
2022-09-23T06:26:11.476Z,3.88
2022-09-23T06:28:40.819Z,4.03
2022-09-23T06:31:13.337Z,3.55
2022-09-23T06:33:42.066Z,3.28
2022-09-23T06:36:09.342Z,3.28
2022-09-23T06:38:44.630Z,3.00
2022-09-23T06:41:12.393Z,3.70
2022-09-23T06:43:39.245Z,3.67
2022-09-23T06:46:07.587Z,2.92
2022-09-23T06:48:35.642Z,3.30
2022-09-23T06:51:05.271Z,4.38
2022-09-23T06:53:33.094Z,3.72
2022-09-23T06:56:05.578Z,3.58
2022-09-23T06:58:33.969Z,3.90
2022-09-23T07:01:02.535Z,3.42
2022-09-23T07:03:30.048Z,2.90
2022-09-23T07:05:57.380Z,3.00
2022-09-23T07:08:26.728Z,3.70
2022-09-23T07:10:54.458Z,3.65
2022-09-23T07:13:21.900Z,3.80
2022-09-23T07:15:53.188Z,3.28
2022-09-23T07:18:23.781Z,5.28
2022-09-23T07:20:58.324Z,3.15
2022-09-23T07:23:25.775Z,3.63
2022-09-23T07:25:52.766Z,3.70
2022-09-23T07:28:19.584Z,3.90
2022-09-23T07:30:58.052Z,5.25
2022-09-23T07:33:32.444Z,3.38
2022-09-23T07:36:03.715Z,3.15
2022-09-23T07:38:30.970Z,2.88
2022-09-23T07:41:05.462Z,3.70
2022-09-23T07:43:33.201Z,3.80
2022-09-23T07:46:03.307Z,3.45
2022-09-23T07:48:34.378Z,3.60
2022-09-23T07:51:36.551Z,3.47
2022-09-23T07:56:35.858Z,2.80
2022-09-23T07:59:05.426Z,4.22
2022-09-23T08:01:36.992Z,2.83
2022-09-23T08:04:07.537Z,2.55
2022-09-23T08:06:34.726Z,3.63
2022-09-23T08:09:01.906Z,3.55
2022-09-23T08:11:30.265Z,3.53
2022-09-23T08:13:57.679Z,2.42
2022-09-23T08:16:24.677Z,2.42
2022-09-23T08:18:51.516Z,3.10
2022-09-23T08:21:21.344Z,3.15
2022-09-23T08:23:48.614Z,2.58
2022-09-23T08:26:20.968Z,3.13
2022-09-23T08:28:49.872Z,2.55
2022-09-23T08:31:16.631Z,3.00
2022-09-23T08:33:43.408Z,2.45
2022-09-23T08:36:10.108Z,2.83
2022-09-23T08:38:37.027Z,2.75
2022-09-23T08:41:15.407Z,2.33
2022-09-23T08:43:50.496Z,2.30
2022-09-23T08:46:26.572Z,2.15
2022-09-23T08:48:55.167Z,2.45
2022-09-23T08:51:30.697Z,2.90
2022-09-23T08:53:58.704Z,2.78
2022-09-23T08:56:25.675Z,2.70
2022-09-23T08:59:09.832Z,2.75
2022-09-23T09:01:55.160Z,3.40
2022-09-23T09:04:38.728Z,2.92
2022-09-23T09:07:34.718Z,3.67
2022-09-23T09:09:55.124Z,2.75
2022-09-23T09:12:43.479Z,3.05
2022-09-23T09:15:24.764Z,2.22
2022-09-23T09:18:01.150Z,2.67
2022-09-23T09:20:36.475Z,2.08
2022-09-23T09:23:14.911Z,2.17
2022-09-23T09:25:49.597Z,2.22
2022-09-23T09:28:24.657Z,2.50
2022-09-23T09:30:56.510Z,1.92
2022-09-23T09:33:44.696Z,2.65
2022-09-23T09:36:32.428Z,2.60
2022-09-23T09:38:59.499Z,2.80
2022-09-23T09:41:31.629Z,2.63
2022-09-23T09:44:03.389Z,2.60
2022-09-23T09:46:46.754Z,2.88
2022-09-23T09:49:52.514Z,2.70
2022-09-23T09:52:29.602Z,2.53
2022-09-23T09:55:14.560Z,2.63
2022-09-23T09:58:04.125Z,2.33
2022-09-23T10:00:30.806Z,2.30
2022-09-23T10:03:14.019Z,3.70
2022-09-23T10:05:48.211Z,2.00
2022-09-23T10:08:36.586Z,1.95
2022-09-23T10:11:15.098Z,2.33
2022-09-23T10:14:02.508Z,2.58
2022-09-23T10:16:31.785Z,2.50
2022-09-23T10:19:00.655Z,2.53
2022-09-23T10:21:35.613Z,2.60
2022-09-23T10:24:05.743Z,2.05
2022-09-23T10:26:38.847Z,2.70
2022-09-23T10:29:20.770Z,2.25
2022-09-23T10:31:47.516Z,1.65
2022-09-23T10:34:25.069Z,2.50
2022-09-23T10:37:26.601Z,1.90
2022-09-23T10:40:32.083Z,3.65
2022-09-23T10:43:25.949Z,2.35
2022-09-23T10:46:17.112Z,3.42
2022-09-23T10:49:12.036Z,3.50
2022-09-23T10:51:44.888Z,2.20
2022-09-23T10:54:46.211Z,2.00
2022-09-23T10:57:43.431Z,2.90
2022-09-23T11:00:27.556Z,2.60
2022-09-23T11:03:12.907Z,3.70
2022-09-23T11:06:14.154Z,2.85
2022-09-23T11:09:08.626Z,2.88
2022-09-23T11:11:41.379Z,2.58
2022-09-23T11:14:29.730Z,2.28
2022-09-23T11:17:15.076Z,2.83
2022-09-23T11:19:57.706Z,4.28
2022-09-23T11:22:37.428Z,3.08
2022-09-23T11:25:19.368Z,2.28
2022-09-23T11:28:19.935Z,2.65
2022-09-23T11:31:21.256Z,1.85
2022-09-23T11:34:17.350Z,2.95
2022-09-23T11:36:50.542Z,2.28
2022-09-23T11:39:27.120Z,2.45
2022-09-23T11:41:58.189Z,2.88
2022-09-23T11:44:30.082Z,2.08
2022-09-23T11:47:08.283Z,2.22
2022-09-23T11:49:35.053Z,2.83
2022-09-23T11:52:24.533Z,2.30
2022-09-23T11:55:20.386Z,2.00
2022-09-23T11:57:52.810Z,5.63
2022-09-23T12:00:23.139Z,2.25
2022-09-23T12:03:05.430Z,1.70
2022-09-23T12:05:39.983Z,2.78
2022-09-23T12:08:35.434Z,2.30
2022-09-23T12:11:17.960Z,3.13
2022-09-23T12:13:54.653Z,3.03
2022-09-23T12:16:49.072Z,1.00
2022-09-23T12:19:55.788Z,2.65
2022-09-23T12:22:49.510Z,2.13
2022-09-23T12:25:46.539Z,2.25
2022-09-23T12:28:22.496Z,3.13
2022-09-23T12:30:51.291Z,1.42
2022-09-23T12:33:24.493Z,3.13
2022-09-23T12:36:08.937Z,2.00
2022-09-23T12:38:48.633Z,1.98
2022-09-23T12:41:27.118Z,1.98
2022-09-23T12:44:13.897Z,2.80
2022-09-23T12:46:42.839Z,1.73
2022-09-23T12:49:28.939Z,0.85
2022-09-23T12:52:30.844Z,1.85
2022-09-23T12:57:34.197Z,1.40
2022-09-23T13:00:09.360Z,2.10
2022-09-23T13:02:39.981Z,1.58
2022-09-23T13:05:43.341Z,1.63
2022-09-23T13:08:19.266Z,1.98
2022-09-23T13:10:50.757Z,1.83
2022-09-23T13:15:48.047Z,1.38
2022-09-23T13:18:20.630Z,1.23
2022-09-23T13:20:52.450Z,2.30
2022-09-23T13:23:25.717Z,2.00
2022-09-23T13:25:56.091Z,1.52
2022-09-23T13:28:57.272Z,1.55
2022-09-23T13:31:24.336Z,1.77
2022-09-23T13:33:59.536Z,1.75
2022-09-23T13:36:26.947Z,1.67
2022-09-23T13:38:53.740Z,2.33
2022-09-23T13:41:23.940Z,1.25
2022-09-23T13:43:58.754Z,1.90
2022-09-23T13:46:34.687Z,1.35
2022-09-23T13:49:02.678Z,1.52
2022-09-23T13:51:34.298Z,1.85
2022-09-23T13:54:03.901Z,1.45
2022-09-23T13:56:32.649Z,1.92
2022-09-23T13:59:42.888Z,1.83
2022-09-23T14:02:17.136Z,1.83
2022-09-23T14:04:44.951Z,1.67
2022-09-23T14:07:14.276Z,1.25
2022-09-23T14:09:48.273Z,1.17
2022-09-23T14:12:21.865Z,1.77
2022-09-23T14:14:50.949Z,1.45
2022-09-23T14:17:22.766Z,1.90
2022-09-23T14:19:50.335Z,1.58
2022-09-23T14:22:28.537Z,1.70
2022-09-23T14:24:57.236Z,1.80
2022-09-23T14:27:36.133Z,2.10
2022-09-23T14:30:03.619Z,2.13
2022-09-23T14:32:30.879Z,1.90
2022-09-23T14:35:00.769Z,1.65
2022-09-23T14:37:55.206Z,1.13
2022-09-23T14:40:31.093Z,1.92
2022-09-23T14:43:17.274Z,1.92
2022-09-23T14:45:48.033Z,1.55
2022-09-23T14:48:19.625Z,1.77
2022-09-23T14:53:23.807Z,1.15
2022-09-23T14:56:17.652Z,1.70
2022-09-23T14:58:54.844Z,2.05
2022-09-23T15:01:27.695Z,1.25
2022-09-23T15:03:55.900Z,1.98
2022-09-23T15:06:23.745Z,2.03
2022-09-23T15:08:53.300Z,2.63
2022-09-23T15:11:22.201Z,2.13
2022-09-23T15:13:52.982Z,2.58
2022-09-23T15:16:27.028Z,1.65
2022-09-23T15:18:59.783Z,2.53
2022-09-23T15:21:40.880Z,2.08
2022-09-23T15:24:40.472Z,1.60
2022-09-23T15:27:30.761Z,1.58
2022-09-23T15:30:16.993Z,2.25
2022-09-23T15:32:45.316Z,2.67
2022-09-23T15:35:18.616Z,2.75
2022-09-23T15:37:55.938Z,1.52
2022-09-23T15:40:24.745Z,2.40
2022-09-23T15:42:58.622Z,2.10
2022-09-23T15:45:40.253Z,2.72
2022-09-23T15:50:36.330Z,1.75
2022-09-23T15:53:04.485Z,1.35
2022-09-23T15:55:31.929Z,2.05
2022-09-23T15:57:58.620Z,1.30
2022-09-23T16:00:25.568Z,1.65
2022-09-23T16:02:52.424Z,1.45
2022-09-23T16:05:37.959Z,1.05
2022-09-23T16:08:09.741Z,1.33
2022-09-23T16:10:37.597Z,1.42
2022-09-23T16:13:07.755Z,1.92
2022-09-23T16:15:34.489Z,2.10
2022-09-23T16:18:01.540Z,3.67
2022-09-23T16:20:30.135Z,1.40
2022-09-23T16:23:00.514Z,1.58
2022-09-23T16:25:29.149Z,1.85
2022-09-23T16:27:57.235Z,1.58
2022-09-23T16:30:28.418Z,1.48
2022-09-23T16:32:55.653Z,1.40
2022-09-23T16:35:25.666Z,2.13
2022-09-23T16:37:52.869Z,1.90
2022-09-23T16:40:22.491Z,1.00
2022-09-23T16:42:52.034Z,1.08
2022-09-23T16:45:22.904Z,2.47
2022-09-23T16:47:51.187Z,1.85
2022-09-23T16:50:21.820Z,1.58
2022-09-23T16:52:48.956Z,1.45
2022-09-23T16:55:15.720Z,2.10
2022-09-23T16:57:42.442Z,2.13
2022-09-23T17:00:33.973Z,2.55
2022-09-23T17:03:20.798Z,7.13
2022-09-23T17:05:49.264Z,4.30
2022-09-23T17:08:17.476Z,2.63
2022-09-23T17:10:45.765Z,4.07
2022-09-23T17:13:17.308Z,2.63
2022-09-23T17:18:11.011Z,2.33
2022-09-23T17:20:38.676Z,3.17
2022-09-23T17:23:05.502Z,4.20
2022-09-23T17:25:33.959Z,2.00
2022-09-23T17:28:01.072Z,2.47
2022-09-23T17:30:29.179Z,2.17
2022-09-23T17:32:55.931Z,2.42
2022-09-23T17:35:22.764Z,2.75
2022-09-23T17:37:50.204Z,3.97
2022-09-23T17:40:17.973Z,3.10
2022-09-23T17:42:44.706Z,2.08
2022-09-23T17:45:12.442Z,3.47
2022-09-23T17:47:41.773Z,2.97
2022-09-23T17:50:08.986Z,3.00
2022-09-23T17:52:35.954Z,4.57
2022-09-23T17:55:02.663Z,6.43
2022-09-23T17:57:29.531Z,3.80
2022-09-23T17:59:56.273Z,3.40
2022-09-23T18:02:23.171Z,2.80
2022-09-23T18:04:50.313Z,4.55
2022-09-23T18:07:17.024Z,4.03
2022-09-23T18:09:43.998Z,3.70
2022-09-23T18:12:10.956Z,4.03
2022-09-23T18:14:37.686Z,2.88
2022-09-23T18:17:04.382Z,2.58
2022-09-23T18:19:31.090Z,3.90
2022-09-23T18:21:57.887Z,3.28
2022-09-23T18:24:33.384Z,9.80
2022-09-23T18:27:00.900Z,4.60
2022-09-23T18:29:28.100Z,4.18
2022-09-23T18:31:54.920Z,5.28
2022-09-23T18:34:21.835Z,3.38
2022-09-23T18:36:48.717Z,3.10
2022-09-23T18:39:15.482Z,2.70
2022-09-23T18:41:42.682Z,3.92
2022-09-23T18:44:09.927Z,3.17
2022-09-23T18:46:36.808Z,5.07
2022-09-23T18:49:22.390Z,3.42
2022-09-23T18:51:52.248Z,4.10
2022-09-23T18:54:22.420Z,3.35
2022-09-23T18:56:49.908Z,4.18
2022-09-23T18:59:20.406Z,3.05
2022-09-23T19:01:49.942Z,4.45
2022-09-23T19:04:19.307Z,4.20
2022-09-23T19:06:46.253Z,4.53
2022-09-23T19:09:14.265Z,3.92
2022-09-23T19:11:41.338Z,3.70
2022-09-23T19:14:11.303Z,3.53
2022-09-23T19:16:40.840Z,4.55
2022-09-23T19:19:08.644Z,4.28
2022-09-23T19:21:37.015Z,4.80
2022-09-23T19:24:06.269Z,4.97
2022-09-23T19:26:37.462Z,4.40
2022-09-23T19:29:05.645Z,3.97
2022-09-23T19:31:35.662Z,3.67
2022-09-23T19:34:11.512Z,4.28
2022-09-23T19:36:40.084Z,5.00
2022-09-23T19:39:11.776Z,5.03
2022-09-23T19:41:38.623Z,4.03
2022-09-23T19:44:07.343Z,4.05
2022-09-23T19:46:40.505Z,4.80
2022-09-23T19:49:08.178Z,4.80
2022-09-23T19:51:35.318Z,4.68
2022-09-23T19:54:03.364Z,4.45
2022-09-23T19:56:31.901Z,4.88
2022-09-23T19:58:59.836Z,5.78
2022-09-23T20:01:27.809Z,4.15
2022-09-23T20:03:54.930Z,5.22
2022-09-23T20:06:22.033Z,4.68
2022-09-23T20:08:49.917Z,4.93
2022-09-23T20:11:26.168Z,5.90
2022-09-23T20:14:00.917Z,4.78
2022-09-23T20:16:31.836Z,4.63
2022-09-23T20:19:00.250Z,4.03
2022-09-23T20:21:29.179Z,4.85
2022-09-23T20:23:56.787Z,5.70
2022-09-23T20:26:42.555Z,4.70
2022-09-23T20:29:10.651Z,4.28
2022-09-23T20:31:37.535Z,4.28
2022-09-23T20:34:06.926Z,4.00
2022-09-23T20:36:35.896Z,4.03
2022-09-23T20:39:05.708Z,4.65
2022-09-23T20:41:37.399Z,4.47
2022-09-23T20:46:33.968Z,3.50
2022-09-23T20:49:01.903Z,3.30
2022-09-23T20:51:29.040Z,4.93
2022-09-23T20:53:55.782Z,4.90
2022-09-23T20:56:23.156Z,3.65
2022-09-23T20:58:52.100Z,3.97
2022-09-23T21:01:19.378Z,4.97
2022-09-23T21:03:48.539Z,4.32
2022-09-23T21:06:17.172Z,4.85
2022-09-23T21:08:44.637Z,5.00
2022-09-23T21:11:14.308Z,5.15
2022-09-23T21:13:46.254Z,5.60
2022-09-23T21:16:15.923Z,5.65
2022-09-23T21:18:44.315Z,6.95
2022-09-23T21:21:12.226Z,6.03
2022-09-23T21:23:40.535Z,4.47
2022-09-23T21:26:11.228Z,4.95
2022-09-23T21:28:44.806Z,4.53
2022-09-23T21:31:22.989Z,5.47
2022-09-23T21:34:07.254Z,4.53
2022-09-23T21:36:39.205Z,4.68
2022-09-23T21:39:07.835Z,5.25
2022-09-23T21:41:35.056Z,5.90
2022-09-23T21:44:02.704Z,5.90
2022-09-23T21:46:29.628Z,6.03
2022-09-23T21:49:02.160Z,6.15
2022-09-23T21:51:38.589Z,6.10
2022-09-23T21:54:07.265Z,6.13
2022-09-23T21:56:36.389Z,5.93
2022-09-23T21:59:03.904Z,5.40
2022-09-23T22:01:36.145Z,5.57
2022-09-23T22:04:13.109Z,7.13
2022-09-23T22:06:40.355Z,5.15
2022-09-23T22:09:10.860Z,7.90
2022-09-23T22:11:57.563Z,4.72
2022-09-23T22:14:26.281Z,6.75
2022-09-23T22:16:57.594Z,6.05
2022-09-23T22:19:35.207Z,6.57
2022-09-23T22:22:07.706Z,5.82
2022-09-23T22:24:34.402Z,5.75
2022-09-23T22:27:01.128Z,6.13
2022-09-23T22:29:48.087Z,4.93
2022-09-23T22:32:33.852Z,4.53
2022-09-23T22:35:00.584Z,6.18
2022-09-23T22:37:34.028Z,4.80
2022-09-23T22:40:02.107Z,5.05
2022-09-23T22:42:29.085Z,5.70
2022-09-23T22:44:55.789Z,4.15
2022-09-23T22:47:22.569Z,4.65
2022-09-23T22:49:55.094Z,5.82
2022-09-23T22:52:24.385Z,4.95
2022-09-23T22:54:52.316Z,4.30
2022-09-23T22:57:19.765Z,4.35
2022-09-23T22:59:48.276Z,5.68
2022-09-23T23:02:17.766Z,4.78
2022-09-23T23:04:48.267Z,5.32
2022-09-23T23:07:20.273Z,6.40
2022-09-23T23:09:50.889Z,5.18
2022-09-23T23:12:19.931Z,5.75
2022-09-23T23:14:47.472Z,4.40
2022-09-23T23:17:14.351Z,5.47
2022-09-23T23:19:41.114Z,5.43
2022-09-23T23:22:07.817Z,5.93
2022-09-23T23:24:34.576Z,4.30
2022-09-23T23:27:01.338Z,5.50
2022-09-23T23:29:28.152Z,4.72
2022-09-23T23:31:55.048Z,5.00
2022-09-23T23:34:22.869Z,5.47
2022-09-23T23:36:56.499Z,6.13
2022-09-23T23:39:24.850Z,4.43
2022-09-23T23:41:56.422Z,5.13
2022-09-23T23:44:24.907Z,5.50
2022-09-23T23:46:52.223Z,5.18
2022-09-23T23:49:19.528Z,4.45
2022-09-23T23:51:46.419Z,4.68
2022-09-23T23:54:15.041Z,5.13
2022-09-23T23:56:41.736Z,5.47
2022-09-23T23:59:08.425Z,5.00
